Station info - map view · info · telemetry · weather · raw · status · beacons · messages · bulletins · browse · moving · my account
Callsign, ship name or locator: Clear       
It is possible to search using wildcards (*?) after a prefix. Example: OH*
APRS station KD8BKB-9 - show graphs
Map loading...
Mic-E message: Off duty
Location: 40°05.43' N 83°04.14' W - locator EN80LC11RR - show map - static map
2.5 miles East bearing 104° from Dublin, Franklin County, Ohio, United States [?]
4.7 miles South bearing 176° from Powell, Delaware County, Ohio, United States
9.7 miles Northwest bearing 337° from Columbus, Franklin County, Ohio, United States
97.8 miles Northeast bearing 49° from Cincinnati, Hamilton County, Ohio, United States
Last position: 2017-12-12 09:28:50 EST (5h34m ago)
2017-12-12 09:28:50 EST local time at Dublin, United States [?]
Altitude: 965 ft
Course:
Device: Yaesu: FTM-400DR (rig)
Last path: KD8BKB-9>TPPU4S via WIDE1-1,WIDE2-1,qAR,K8GPS-4 (good)
Positions stored: 2042
Packet rate: 78 seconds between packets on average during 1716 seconds.
Other SSIDs: KD8BKB-1 KD8BKB-2 KD8BKB-6 KD8BKB-7 KD8BKB-C
Stations near current position of KD8BKB-9 - show more
callsign distance last heard - EST      callsign distance last heard - EST
KOSU0.9 miles 237°2017-11-30 08:41:13 K8AMS-91.0 miles 286°2017-12-12 14:10:48
KB8FXG-92.5 miles 143°2017-12-12 10:55:48 CW85592.6 miles 347°2017-12-12 14:39:14
K5WI-i3.0 miles 70°2017-12-10 19:29:02 K8KDR-13.1 miles 226°2017-12-12 14:51:44
W8KHW-14.0 miles 188°2017-12-12 14:52:01 W8KHW-24.0 miles 188°2017-11-26 23:21:28
AB8KN-24.9 miles 171°2017-12-12 14:35:01 W8KHW-T5.0 miles 174°2017-11-30 16:32:33
W8KHW-65.0 miles 154°2017-12-11 15:32:18 N8KXH-95.3 miles 277°2017-12-12 12:44:38
KB8SSH5.6 miles 133°2017-12-12 15:01:09 EW46595.6 miles 181°2017-12-12 15:02:24
EW54936.2 miles 165°2017-12-12 14:58:56 WX8U-156.3 miles 222°2017-12-12 14:49:08
N8XE6.4 miles 222°2017-12-12 14:09:25 N8YKJ-96.5 miles 59°2017-12-12 11:05:54
N8WCT-16.8 miles 159°2017-12-12 14:48:17 KD8PHI-17.1 miles 44°2017-11-27 21:07:18
Stations which heard KD8BKB-9 directly on radio –
callsign pkts first heard - EST last heard longest (tx => rx) longest at - EST
K9APR-5 1 2017-12-05 17:36:32 2017-12-05 17:36:32 EM79QU > EM79LV 21.7 miles 279° 2017-12-05 17:36:32
WA8ZWJ-1 7 2017-12-05 13:19:15 2017-12-05 18:14:48 EM79XU > EM79TV 16.3 miles 281° 2017-12-05 18:14:48
W8BLV 14 2017-12-05 13:19:15 2017-12-05 18:02:35 EM79QU > EM79TM 27.0 miles 148° 2017-12-05 17:38:29
WC8EMA 20 2017-12-05 12:58:33 2017-12-05 18:34:46 EM89EW > EM79WL 43.2 miles 221° 2017-12-05 18:34:46
K8GPS-4 39 2017-12-03 00:16:28 2017-12-12 09:28:50 EM89GW > EM89OU 36.4 miles 98° 2017-12-05 18:40:43
W8OG 13 2017-12-05 12:50:09 2017-12-05 18:34:43 EM89EW > EM89BW 13.1 miles 267° 2017-12-05 12:50:09
KI6SZ-2 24 2017-12-05 12:56:31 2017-12-05 18:34:43 EM79QS > EM79WT 30.2 miles 82° 2017-12-05 17:02:37
N8WCT-1 31 2017-12-03 00:16:28 2017-12-12 09:26:27 EN80PB > EM89LX 16.8 miles 251° 2017-12-03 00:33:52
W8VFR-1 39 2017-12-05 13:25:22 2017-12-05 17:58:39 EM79TU > EM79PO 23.1 miles 222° 2017-12-05 13:25:22
W8VFR-2 1 2017-12-05 17:12:16 2017-12-05 17:12:16 EM79OT > EM79OU 3.6 miles 332° 2017-12-05 17:12:16
W8VFR-9 28 2017-12-05 13:26:52 2017-12-05 17:51:50 EM79TU > EM79QR 13.8 miles 230° 2017-12-05 13:26:52
W8VFR-10 10 2017-12-05 14:27:33 2017-12-05 17:31:06 EM79QS > EM79PS 5.6 miles 263° 2017-12-05 17:31:06
KB8RQB-1 1 2017-12-05 17:19:48 2017-12-05 17:19:48 EM79PS > EM79PT 2.8 miles 310° 2017-12-05 17:19:48
W8VFR-3 1 2017-12-05 13:38:44 2017-12-05 13:38:44 EM79QU > EM79TP 20.2 miles 134° 2017-12-05 13:38:44
W8VFR-4 9 2017-12-05 13:26:53 2017-12-05 18:00:36 EM79OT > EM79TR 20.0 miles 102° 2017-12-05 17:11:45
N8VKX-10 11 2017-12-05 13:31:09 2017-12-05 17:54:40 EM79QT > EM79RU 4.6 miles 67° 2017-12-05 13:39:14
W8VFR-11 3 2017-12-05 13:38:46 2017-12-05 17:33:38 EM79QU > EM79NO 22.1 miles 221° 2017-12-05 13:38:46
KB8UVN-11 2 2017-12-12 09:01:05 2017-12-12 09:21:21 EN80KC > EN80PD 19.9 miles 82° 2017-12-12 09:21:21
EATON 1 2017-12-05 16:27:33 2017-12-05 16:27:33 EM79QS > EM79QR 1.6 miles 158° 2017-12-05 16:27:33
W8VFR-8 3 2017-12-05 13:25:20 2017-12-05 17:36:30 EM79TU > EM79QW 13.6 miles 289° 2017-12-05 13:25:20
KD8QFM-3 3 2017-12-05 13:14:44 2017-12-05 18:10:48 EM79WU > EM79VV 4.0 miles 299° 2017-12-05 18:10:48
WB8VSU-10 6 2017-12-05 12:54:57 2017-12-05 18:30:46 EM89BV > EN80EE 23.6 miles 31° 2017-12-05 13:02:31
K8QIK-11 9 2017-12-01 22:43:42 2017-12-12 09:12:13 EN80KA > EM89RW 29.8 miles 102° 2017-12-05 19:07:02

Only position packets which were originated by the station are shown here. The range statistics show some extra long hops, because some digipeaters do not correctly add themselves to the digipeater path. Please check the raw packets.
About this site
This page shows real-time information collected from the Automatic Position Reporting System Internet network (APRS-IS). APRS is used by amateur (ham) radio operators to transmit real-time position information, weather data, telemetry and messages over the radio. A vehicle equipped with a GPS receiver, a VHF transmitter or HF transceiver and a small computer device called a tracker transmits it's location, speed and course in a small data packet, which is then received by a nearby iGate receiving site which forwards the packet on the Internet. Systems connected to the Internet can send information on the APRS-IS without a radio transmitter, or collect and display information transmitted anywhere in the world.
FAQ · Blog · Discussion group · Linking to aprs.fi · AIS sites · Service status · Database statistics · Advertising on aprs.fi · Technical details · API · Change log · Planned changes · Credits and thanks · Terms Of Service · iPhone/iPad APRS